createdAt,value
2022-11-29T00:01:36.196Z,179.30
2022-11-29T00:04:04.429Z,103.40
2022-11-29T00:06:34.096Z,110.50
2022-11-29T00:09:07.849Z,73.10
2022-11-29T00:11:55.713Z,140.50
2022-11-29T00:14:23.715Z,67.20
2022-11-29T00:16:59.439Z,105.70
2022-11-29T00:19:26.528Z,94.60
2022-11-29T00:21:53.577Z,123.90
2022-11-29T00:24:20.648Z,97.70
2022-11-29T00:26:48.335Z,77.80
2022-11-29T00:29:15.247Z,83.90
2022-11-29T00:31:42.715Z,41.30
2022-11-29T00:34:11.716Z,87.70
2022-11-29T00:36:38.970Z,104.30
2022-11-29T00:39:06.603Z,62.50
2022-11-29T00:41:33.726Z,52.30
2022-11-29T00:44:01.027Z,72.80
2022-11-29T00:46:28.707Z,67.10
2022-11-29T00:48:55.689Z,77.00
2022-11-29T00:51:22.590Z,71.50
2022-11-29T00:53:49.516Z,88.70
2022-11-29T00:56:16.515Z,49.70
2022-11-29T00:58:46.317Z,97.80
2022-11-29T01:01:13.223Z,68.10
2022-11-29T01:03:40.593Z,98.30
2022-11-29T01:06:11.756Z,148.70
2022-11-29T01:08:39.493Z,76.70
2022-11-29T01:11:17.935Z,87.40
2022-11-29T01:13:45.181Z,77.00
2022-11-29T01:16:14.509Z,94.70
2022-11-29T01:18:42.374Z,62.30
2022-11-29T01:21:13.886Z,77.70
2022-11-29T01:23:42.440Z,39.30
2022-11-29T01:26:16.294Z,34.10
2022-11-29T01:28:47.351Z,46.70
2022-11-29T01:31:27.414Z,57.80
2022-11-29T01:33:56.542Z,46.90
2022-11-29T01:36:24.349Z,41.00
2022-11-29T01:38:51.800Z,58.50
2022-11-29T01:41:25.643Z,57.80
2022-11-29T01:44:13.971Z,76.60
2022-11-29T01:46:45.423Z,59.90
2022-11-29T01:49:43.136Z,43.00
2022-11-29T01:52:16.705Z,56.80
2022-11-29T01:54:52.939Z,51.70
2022-11-29T01:57:20.701Z,86.50
2022-11-29T01:59:52.094Z,88.50
2022-11-29T02:02:28.803Z,70.20
2022-11-29T02:04:58.699Z,79.50
2022-11-29T02:07:25.736Z,85.70
2022-11-29T02:09:52.755Z,83.50
2022-11-29T02:12:43.397Z,73.60
2022-11-29T02:15:24.974Z,82.90
2022-11-29T02:18:47.989Z,88.10
2022-11-29T02:21:43.698Z,85.90
2022-11-29T02:24:38.159Z,66.10
2022-11-29T02:27:50.453Z,88.20
2022-11-29T02:30:23.178Z,74.60
2022-11-29T02:33:30.892Z,74.80
2022-11-29T02:39:23.944Z,69.70
2022-11-29T02:42:17.207Z,64.50
2022-11-29T02:45:36.374Z,54.00
2022-11-29T02:48:42.026Z,47.10
2022-11-29T02:51:48.396Z,27.60
2022-11-29T02:54:24.353Z,48.30
2022-11-29T02:57:46.287Z,91.90
2022-11-29T03:00:18.819Z,104.50
2022-11-29T03:02:51.503Z,107.10
2022-11-29T03:05:41.836Z,98.90
2022-11-29T03:08:56.192Z,89.20
2022-11-29T03:11:59.903Z,80.10
2022-11-29T03:14:54.593Z,62.90
2022-11-29T03:17:41.711Z,63.70
2022-11-29T03:20:24.124Z,65.70
2022-11-29T03:23:15.333Z,65.60
2022-11-29T03:26:02.247Z,59.70
2022-11-29T03:29:30.426Z,74.80
2022-11-29T03:32:21.128Z,75.30
2022-11-29T03:35:23.505Z,80.40
2022-11-29T03:37:55.515Z,94.70
2022-11-29T03:40:39.987Z,108.30
2022-11-29T03:43:14.756Z,117.10
2022-11-29T03:45:51.349Z,127.40
2022-11-29T03:48:31.686Z,82.20
2022-11-29T03:51:16.756Z,63.70
2022-11-29T03:53:55.893Z,55.30
2022-11-29T03:56:33.178Z,58.10
2022-11-29T03:59:38.312Z,51.90
2022-11-29T04:02:40.817Z,63.00
2022-11-29T04:05:55.563Z,66.10
2022-11-29T04:09:08.993Z,64.00
2022-11-29T04:12:06.661Z,50.70
2022-11-29T04:15:47.633Z,51.20
2022-11-29T04:18:14.478Z,59.60
2022-11-29T04:21:39.342Z,86.00
2022-11-29T04:24:39.505Z,34.20
2022-11-29T04:27:41.881Z,44.70
2022-11-29T04:30:09.239Z,66.40
2022-11-29T04:33:03.316Z,70.20
2022-11-29T04:35:48.590Z,88.10
2022-11-29T04:38:29.428Z,118.20
2022-11-29T04:41:21.493Z,74.20
2022-11-29T04:43:57.351Z,96.70
2022-11-29T04:46:36.250Z,93.30
2022-11-29T04:49:18.481Z,82.30
2022-11-29T04:52:30.171Z,50.70
2022-11-29T04:55:37.434Z,65.20
2022-11-29T04:58:19.256Z,39.10
2022-11-29T05:00:57.565Z,48.80
2022-11-29T05:03:55.439Z,107.50
2022-11-29T05:07:01.495Z,77.90
2022-11-29T05:09:34.643Z,88.40
2022-11-29T05:12:49.315Z,55.30
2022-11-29T05:15:51.235Z,62.30
2022-11-29T05:18:58.094Z,75.90
2022-11-29T05:21:25.246Z,71.70
2022-11-29T05:24:30.695Z,106.30
2022-11-29T05:27:27.955Z,151.30
2022-11-29T05:30:06.779Z,89.50
2022-11-29T05:32:54.311Z,105.50
2022-11-29T05:35:27.313Z,116.70
2022-11-29T05:38:05.613Z,89.00
2022-11-29T05:40:44.396Z,63.40
2022-11-29T05:44:10.430Z,57.10
2022-11-29T05:46:54.579Z,41.50
2022-11-29T05:49:21.423Z,40.60
2022-11-29T05:51:56.559Z,57.70
2022-11-29T05:54:37.841Z,34.50
2022-11-29T05:57:30.287Z,31.80
2022-11-29T05:59:59.076Z,46.90
2022-11-29T06:03:12.131Z,61.70
2022-11-29T06:05:49.505Z,60.10
2022-11-29T06:08:46.145Z,53.40
2022-11-29T06:11:23.760Z,57.40
2022-11-29T06:14:08.205Z,64.50
2022-11-29T06:16:39.141Z,86.80
2022-11-29T06:19:43.562Z,56.60
2022-11-29T06:23:02.014Z,129.70
2022-11-29T06:25:39.509Z,115.90
2022-11-29T06:28:45.228Z,98.20
2022-11-29T06:31:22.007Z,122.90
2022-11-29T06:34:01.183Z,81.10
2022-11-29T06:36:43.032Z,98.40
2022-11-29T06:39:11.366Z,83.80
2022-11-29T06:41:38.406Z,74.20
2022-11-29T06:44:07.097Z,49.20
2022-11-29T06:47:06.780Z,29.50
2022-11-29T06:49:40.214Z,54.10
2022-11-29T06:52:16.170Z,46.80
2022-11-29T06:55:11.176Z,48.00
2022-11-29T06:58:05.886Z,53.10
2022-11-29T07:01:19.788Z,55.20
2022-11-29T07:04:23.031Z,60.40
2022-11-29T07:06:51.605Z,74.90
2022-11-29T07:09:20.784Z,57.80
2022-11-29T07:11:48.439Z,52.40
2022-11-29T07:14:16.399Z,32.60
2022-11-29T07:17:12.371Z,43.50
2022-11-29T07:20:08.293Z,35.40
2022-11-29T07:23:14.326Z,68.60
2022-11-29T07:26:15.402Z,27.40
2022-11-29T07:29:10.716Z,46.30
2022-11-29T07:32:02.036Z,20.70
2022-11-29T07:34:44.567Z,30.70
2022-11-29T07:37:14.561Z,20.10
2022-11-29T07:40:22.570Z,24.60
2022-11-29T07:43:19.411Z,24.00
2022-11-29T07:45:46.873Z,31.50
2022-11-29T07:48:14.018Z,42.60
2022-11-29T07:50:41.434Z,51.20
2022-11-29T07:53:19.785Z,27.10
2022-11-29T07:55:48.370Z,51.00
2022-11-29T07:58:17.610Z,35.40
2022-11-29T08:00:45.622Z,37.70
2022-11-29T08:03:12.791Z,29.00
2022-11-29T08:05:40.190Z,37.80
2022-11-29T08:08:07.887Z,40.70
2022-11-29T08:10:35.786Z,42.40
2022-11-29T08:13:03.150Z,43.10
2022-11-29T08:15:30.598Z,45.70
2022-11-29T08:17:58.155Z,38.50
2022-11-29T08:20:25.391Z,39.80
2022-11-29T08:22:59.949Z,25.40
2022-11-29T08:25:28.274Z,35.80
2022-11-29T08:27:56.217Z,77.80
2022-11-29T08:30:24.194Z,36.90
2022-11-29T08:32:52.323Z,36.10
2022-11-29T08:35:22.458Z,35.00
2022-11-29T08:37:50.610Z,46.40
2022-11-29T08:40:18.381Z,31.80
2022-11-29T08:42:45.378Z,32.40
2022-11-29T08:45:13.259Z,41.10
2022-11-29T08:47:42.449Z,22.30
2022-11-29T08:50:17.581Z,24.00
2022-11-29T08:53:08.168Z,23.50
2022-11-29T08:55:42.933Z,30.00
2022-11-29T08:58:14.707Z,39.20
2022-11-29T09:00:47.005Z,38.70
2022-11-29T09:03:32.518Z,33.90
2022-11-29T09:06:14.875Z,32.20
2022-11-29T09:08:43.927Z,38.00
2022-11-29T09:11:19.929Z,40.20
2022-11-29T09:13:50.865Z,37.50
2022-11-29T09:16:21.360Z,47.40
2022-11-29T09:18:56.139Z,40.60
2022-11-29T09:21:30.039Z,36.40
2022-11-29T09:24:01.181Z,40.90
2022-11-29T09:26:32.431Z,51.30
2022-11-29T09:29:02.099Z,42.40
2022-11-29T09:31:31.142Z,40.30
2022-11-29T09:33:58.939Z,41.10
2022-11-29T09:36:29.219Z,45.10
2022-11-29T09:38:58.204Z,46.00
2022-11-29T09:42:07.856Z,45.10
2022-11-29T09:45:19.663Z,41.80
2022-11-29T09:48:13.997Z,41.00
2022-11-29T09:50:59.724Z,44.60
2022-11-29T09:53:50.837Z,46.50
2022-11-29T09:56:42.971Z,48.10
2022-11-29T09:59:19.031Z,39.90
2022-11-29T10:01:54.059Z,37.80
2022-11-29T10:04:30.331Z,35.30
2022-11-29T10:07:27.445Z,46.10
2022-11-29T10:10:05.169Z,29.40
2022-11-29T10:12:40.016Z,34.10
2022-11-29T10:15:33.075Z,32.50
2022-11-29T10:18:13.124Z,32.30
2022-11-29T10:20:48.809Z,35.40
2022-11-29T10:23:39.327Z,31.30
2022-11-29T10:26:08.368Z,34.00
2022-11-29T10:28:37.679Z,31.90
2022-11-29T10:31:27.016Z,32.10
2022-11-29T10:33:56.444Z,37.00
2022-11-29T10:36:41.921Z,34.30
2022-11-29T10:39:46.447Z,32.70
2022-11-29T10:42:40.016Z,33.00
2022-11-29T10:45:20.785Z,31.10
2022-11-29T10:47:50.304Z,31.70
2022-11-29T10:50:32.596Z,31.10
2022-11-29T10:53:30.978Z,29.50
2022-11-29T10:56:05.984Z,31.20
2022-11-29T10:58:33.163Z,49.10
2022-11-29T11:01:07.147Z,26.50
2022-11-29T11:03:50.140Z,29.10
2022-11-29T11:06:27.501Z,27.40
2022-11-29T11:09:31.395Z,32.10
2022-11-29T11:12:02.129Z,33.70
2022-11-29T11:14:40.029Z,22.60
2022-11-29T11:17:34.011Z,29.60
2022-11-29T11:20:16.185Z,27.20
2022-11-29T11:22:44.180Z,26.50
2022-11-29T11:25:31.808Z,37.70
2022-11-29T11:28:40.634Z,35.50
2022-11-29T11:31:11.021Z,41.20
2022-11-29T11:33:45.481Z,41.20
2022-11-29T11:36:21.645Z,39.20
2022-11-29T11:39:18.181Z,35.90
2022-11-29T11:42:04.684Z,26.70
2022-11-29T11:44:52.347Z,22.50
2022-11-29T11:47:28.064Z,25.20
2022-11-29T11:50:12.063Z,51.00
2022-11-29T11:52:54.108Z,23.80
2022-11-29T11:55:37.135Z,22.30
2022-11-29T11:58:13.297Z,23.20
2022-11-29T12:01:06.759Z,21.40
2022-11-29T12:04:02.949Z,20.90
2022-11-29T12:06:46.274Z,21.90
2022-11-29T12:09:56.085Z,23.60
2022-11-29T12:12:42.157Z,21.80
2022-11-29T12:15:19.240Z,21.70
2022-11-29T12:17:55.126Z,20.90
2022-11-29T12:20:51.531Z,21.90
2022-11-29T12:24:07.730Z,20.90
2022-11-29T12:26:57.606Z,20.20
2022-11-29T12:29:29.850Z,21.40
2022-11-29T12:32:29.188Z,19.40
2022-11-29T12:35:08.519Z,17.70
2022-11-29T12:38:17.144Z,17.20
2022-11-29T12:41:31.498Z,19.40
2022-11-29T12:44:07.968Z,17.60
2022-11-29T12:46:35.845Z,20.70
2022-11-29T12:49:29.401Z,18.60
2022-11-29T12:52:10.170Z,16.80
2022-11-29T12:54:57.082Z,16.50
2022-11-29T12:57:53.110Z,16.20
2022-11-29T13:00:21.260Z,15.30
2022-11-29T13:03:25.911Z,15.90
2022-11-29T13:06:04.633Z,14.80
2022-11-29T13:08:43.458Z,15.30
2022-11-29T13:11:31.767Z,15.20
2022-11-29T13:14:44.071Z,14.90
2022-11-29T13:17:58.935Z,17.60
2022-11-29T13:20:34.113Z,19.40
2022-11-29T13:24:00.697Z,17.80
2022-11-29T13:26:28.320Z,21.50
2022-11-29T13:28:56.021Z,20.50
2022-11-29T13:31:25.599Z,18.00
2022-11-29T13:34:10.810Z,17.50
2022-11-29T13:36:52.755Z,17.10
2022-11-29T13:39:58.513Z,23.00
2022-11-29T13:42:37.333Z,18.30
2022-11-29T13:45:34.693Z,22.40
2022-11-29T13:48:03.806Z,20.50
2022-11-29T13:50:57.764Z,22.00
2022-11-29T13:53:42.847Z,20.70
2022-11-29T13:56:33.640Z,22.20
2022-11-29T13:59:06.525Z,22.40
2022-11-29T14:01:46.518Z,19.70
2022-11-29T14:04:38.847Z,20.00
2022-11-29T14:07:14.705Z,23.60
2022-11-29T14:10:28.592Z,25.10
2022-11-29T14:12:57.685Z,21.70
2022-11-29T14:15:31.425Z,21.90
2022-11-29T14:18:08.297Z,23.50
2022-11-29T14:20:44.247Z,23.70
2022-11-29T14:23:31.775Z,22.60
2022-11-29T14:25:58.626Z,27.90
2022-11-29T14:28:39.396Z,25.00
2022-11-29T14:31:08.659Z,14.80
2022-11-29T14:33:51.120Z,17.50
2022-11-29T14:36:40.278Z,20.50
2022-11-29T14:39:59.037Z,34.30
2022-11-29T14:42:29.586Z,115.80
2022-11-29T14:45:04.945Z,62.60
2022-11-29T14:47:39.233Z,40.00
2022-11-29T14:50:10.790Z,24.60
2022-11-29T14:52:51.056Z,29.30
2022-11-29T14:55:17.886Z,21.10
2022-11-29T14:57:47.503Z,23.70
2022-11-29T15:00:21.927Z,19.10
2022-11-29T15:02:55.826Z,21.80
2022-11-29T15:05:36.701Z,25.50
2022-11-29T15:08:21.270Z,29.70
2022-11-29T15:10:52.722Z,23.40
2022-11-29T15:13:29.056Z,26.00
2022-11-29T15:16:27.838Z,31.30
2022-11-29T15:19:45.164Z,25.10
2022-11-29T15:22:29.409Z,23.80
2022-11-29T15:25:32.049Z,24.30
2022-11-29T15:28:02.575Z,22.80
2022-11-29T15:30:36.584Z,11.90
2022-11-29T15:33:07.422Z,30.80
2022-11-29T15:35:36.165Z,21.90
2022-11-29T15:38:03.945Z,40.70
2022-11-29T15:40:35.174Z,30.90
2022-11-29T15:43:27.729Z,32.00
2022-11-29T15:45:57.395Z,29.40
2022-11-29T15:48:30.272Z,29.70
2022-11-29T15:51:29.973Z,40.70
2022-11-29T15:54:13.228Z,30.70
2022-11-29T15:56:47.923Z,27.90
2022-11-29T15:59:45.283Z,15.40
2022-11-29T16:02:20.256Z,30.30
2022-11-29T16:04:51.039Z,40.80
2022-11-29T16:07:19.957Z,41.30
2022-11-29T16:10:18.121Z,42.90
2022-11-29T16:13:22.647Z,53.20
2022-11-29T16:15:49.600Z,31.70
2022-11-29T16:18:25.761Z,34.50
2022-11-29T16:21:05.831Z,18.50
2022-11-29T16:23:40.091Z,35.20
2022-11-29T16:26:13.012Z,41.70
2022-11-29T16:28:47.523Z,31.50
2022-11-29T16:31:25.166Z,41.50
2022-11-29T16:33:52.904Z,42.30
2022-11-29T16:36:24.878Z,45.20
2022-11-29T16:39:05.635Z,56.10
2022-11-29T16:41:36.361Z,17.30
2022-11-29T16:44:05.542Z,26.50
2022-11-29T16:46:35.164Z,29.00
2022-11-29T16:49:33.602Z,34.30
2022-11-29T16:52:02.947Z,32.40
2022-11-29T16:54:35.630Z,40.60
2022-11-29T16:57:06.722Z,39.10
2022-11-29T16:59:35.557Z,35.50
2022-11-29T17:02:02.635Z,27.40
2022-11-29T17:04:29.659Z,30.70
2022-11-29T17:06:57.791Z,28.40
2022-11-29T17:09:31.756Z,39.30
2022-11-29T17:12:02.366Z,32.90
2022-11-29T17:14:31.281Z,31.20
2022-11-29T17:17:01.157Z,33.10
2022-11-29T17:19:29.500Z,37.40
2022-11-29T17:21:57.081Z,26.20
2022-11-29T17:24:25.075Z,19.70
2022-11-29T17:26:52.123Z,41.40
2022-11-29T17:29:19.477Z,31.00
2022-11-29T17:31:47.341Z,46.10
2022-11-29T17:34:14.393Z,27.80
2022-11-29T17:36:41.732Z,37.10
2022-11-29T17:39:09.201Z,41.40
2022-11-29T17:41:36.149Z,31.50
2022-11-29T17:44:03.704Z,31.50
2022-11-29T17:46:37.521Z,26.60
2022-11-29T17:49:10.042Z,36.30
2022-11-29T17:51:54.446Z,29.90
2022-11-29T17:54:22.820Z,32.40
2022-11-29T17:56:51.170Z,26.00
2022-11-29T17:59:18.252Z,31.60
2022-11-29T18:01:47.500Z,30.80
2022-11-29T18:04:14.907Z,23.20
2022-11-29T18:06:42.123Z,26.60
2022-11-29T18:09:11.275Z,24.70
2022-11-29T18:11:48.549Z,27.50
2022-11-29T18:14:24.269Z,27.90
2022-11-29T18:16:52.108Z,39.50
2022-11-29T18:19:21.862Z,26.30
2022-11-29T18:21:49.757Z,26.70
2022-11-29T18:24:17.368Z,31.60
2022-11-29T18:26:44.726Z,36.10
2022-11-29T18:29:12.136Z,49.70
2022-11-29T18:31:43.344Z,35.80
2022-11-29T18:34:13.234Z,31.00
2022-11-29T18:36:44.811Z,27.70
2022-11-29T18:39:18.266Z,24.50
2022-11-29T18:41:48.643Z,25.00
2022-11-29T18:44:18.905Z,32.90
2022-11-29T18:46:46.827Z,25.60
2022-11-29T18:49:19.609Z,31.00
2022-11-29T18:51:48.113Z,28.00
2022-11-29T18:54:18.419Z,34.70
2022-11-29T18:56:46.177Z,33.00
2022-11-29T18:59:17.428Z,40.50
2022-11-29T19:01:48.309Z,60.40
2022-11-29T19:04:20.701Z,49.80
2022-11-29T19:06:48.572Z,33.90
2022-11-29T19:09:21.640Z,45.50
2022-11-29T19:11:49.994Z,37.40
2022-11-29T19:14:18.349Z,49.10
2022-11-29T19:16:48.159Z,47.50
2022-11-29T19:19:15.206Z,35.60
2022-11-29T19:21:42.366Z,39.40
2022-11-29T19:24:15.140Z,50.30
2022-11-29T19:26:45.534Z,38.10
2022-11-29T19:29:17.290Z,35.10
2022-11-29T19:31:44.883Z,31.60
2022-11-29T19:34:11.956Z,35.90
2022-11-29T19:36:43.598Z,28.70
2022-11-29T19:39:14.181Z,30.30
2022-11-29T19:41:44.332Z,27.40
2022-11-29T19:44:12.758Z,45.70
2022-11-29T19:46:44.532Z,45.10
2022-11-29T19:49:12.480Z,30.80
2022-11-29T19:51:39.483Z,33.60
2022-11-29T19:54:09.784Z,33.70
2022-11-29T19:56:36.962Z,24.30
2022-11-29T19:59:06.315Z,21.60
2022-11-29T20:01:40.317Z,25.70
2022-11-29T20:04:09.686Z,21.10
2022-11-29T20:06:37.351Z,27.50
2022-11-29T20:09:04.784Z,29.80
2022-11-29T20:11:31.732Z,18.10
2022-11-29T20:14:04.103Z,43.60
2022-11-29T20:16:32.894Z,39.40
2022-11-29T20:19:01.886Z,33.40
2022-11-29T20:21:33.910Z,30.80
2022-11-29T20:24:07.868Z,48.90
2022-11-29T20:26:38.184Z,41.30
2022-11-29T20:29:07.282Z,33.40
2022-11-29T20:31:37.305Z,35.00
2022-11-29T20:34:06.664Z,42.60
2022-11-29T20:37:09.378Z,41.30
2022-11-29T20:40:01.411Z,45.20
2022-11-29T20:42:46.892Z,38.30
2022-11-29T20:45:16.020Z,36.40
2022-11-29T20:48:11.354Z,45.10
2022-11-29T20:50:38.751Z,50.60
2022-11-29T20:53:15.525Z,39.70
2022-11-29T20:55:48.075Z,26.90
2022-11-29T20:58:16.326Z,34.00
2022-11-29T21:00:43.428Z,40.90
2022-11-29T21:03:15.116Z,31.50
2022-11-29T21:05:42.501Z,40.80
2022-11-29T21:08:09.483Z,49.70
2022-11-29T21:10:36.640Z,83.80
2022-11-29T21:13:04.115Z,59.20
2022-11-29T21:15:31.991Z,74.40
2022-11-29T21:17:59.966Z,74.80
2022-11-29T21:20:27.877Z,34.30
2022-11-29T21:23:09.379Z,49.70
2022-11-29T21:25:52.502Z,45.10
2022-11-29T21:28:20.318Z,33.70
2022-11-29T21:30:48.233Z,33.80
2022-11-29T21:33:16.570Z,34.10
2022-11-29T21:35:43.558Z,46.10
2022-11-29T21:38:17.879Z,70.60
2022-11-29T21:40:44.821Z,41.30
2022-11-29T21:43:11.766Z,43.90
2022-11-29T21:45:38.813Z,48.90
2022-11-29T21:48:26.136Z,55.50
2022-11-29T21:50:53.083Z,49.80
2022-11-29T21:53:20.027Z,40.80
2022-11-29T21:55:46.974Z,26.30
2022-11-29T21:58:14.017Z,34.40
2022-11-29T22:00:40.963Z,44.50
2022-11-29T22:03:07.957Z,44.40
2022-11-29T22:05:35.058Z,21.10
2022-11-29T22:08:02.043Z,31.40
2022-11-29T22:10:29.051Z,27.70
2022-11-29T22:12:59.228Z,50.60
2022-11-29T22:15:27.244Z,33.70
2022-11-29T22:17:54.289Z,34.80
2022-11-29T22:20:21.344Z,37.00
2022-11-29T22:22:48.796Z,22.00
2022-11-29T22:25:16.617Z,46.10
2022-11-29T22:27:43.609Z,48.40
2022-11-29T22:30:11.746Z,53.30
2022-11-29T22:32:38.658Z,47.80
2022-11-29T22:35:07.267Z,62.80
2022-11-29T22:37:34.257Z,16.50
2022-11-29T22:40:01.198Z,32.40
2022-11-29T22:42:28.152Z,32.70
2022-11-29T22:44:55.395Z,40.60
2022-11-29T22:47:22.340Z,32.50
2022-11-29T22:49:49.797Z,29.80
2022-11-29T22:52:16.741Z,27.80
2022-11-29T22:54:44.756Z,40.70
2022-11-29T22:57:11.962Z,44.10
2022-11-29T22:59:38.863Z,41.70
2022-11-29T23:02:05.934Z,30.20
2022-11-29T23:04:32.897Z,41.70
2022-11-29T23:06:59.846Z,39.50
2022-11-29T23:09:27.094Z,38.60
2022-11-29T23:11:56.455Z,39.00
2022-11-29T23:14:24.236Z,24.00
2022-11-29T23:16:52.008Z,20.80
2022-11-29T23:19:19.277Z,27.40
2022-11-29T23:21:46.641Z,24.80
2022-11-29T23:24:16.349Z,22.90
2022-11-29T23:26:46.879Z,30.20
2022-11-29T23:29:17.511Z,24.20
2022-11-29T23:31:45.031Z,22.30
2022-11-29T23:34:13.000Z,19.90
2022-11-29T23:36:39.975Z,31.30
2022-11-29T23:39:07.606Z,24.00
2022-11-29T23:41:36.687Z,22.50
2022-11-29T23:44:05.843Z,30.50
2022-11-29T23:46:33.069Z,31.20
2022-11-29T23:49:00.024Z,44.00
2022-11-29T23:51:27.080Z,22.70
2022-11-29T23:53:54.834Z,21.70
2022-11-29T23:56:22.601Z,27.30
2022-11-29T23:58:49.968Z,23.00
